Time;durP1;ratioP1;P1;durP2;ratioP2;P2;SDS_P1;SDS_P2;PMS_P1;PMS_P2;Temp;Humidity;BMP_temperature;BMP_pressure;BME280_temperature;BME280_humidity;BME280_pressure;Samples;Min_cycle;Max_cycle;Signal;HPM_P1;HPM_P2
2023/07/11 00:00:25;;;;;;;;;;;17.20;99.90;;;;;;7303576;19;9545;-70
2023/07/11 00:02:54;;;;;;;;;;;17.20;99.90;;;;;;7302640;19;9490;-70
2023/07/11 00:05:23;;;;;;;;;;;17.30;99.90;;;;;;7308044;19;9716;-70
2023/07/11 00:07:52;;;;;;;;;;;17.30;99.90;;;;;;7301115;19;10616;-70
2023/07/11 00:10:22;;;;;;;;;;;17.20;99.90;;;;;;7301106;19;9554;-69
2023/07/11 00:12:51;;;;;;;;;;;17.20;99.90;;;;;;7303576;19;10675;-69
2023/07/11 00:15:23;;;;;;;;;;;17.10;99.90;;;;;;7302519;19;9345;-70
2023/07/11 00:17:52;;;;;;;;;;;17.10;99.90;;;;;;7305648;19;9318;-70
2023/07/11 00:20:22;;;;;;;;;;;17.00;99.90;;;;;;7300945;19;9228;-69
2023/07/11 00:22:51;;;;;;;;;;;17.00;99.90;;;;;;7303111;19;9798;-70
2023/07/11 00:25:21;;;;;;;;;;;17.00;99.90;;;;;;7302253;19;9774;-70
2023/07/11 00:27:50;;;;;;;;;;;16.90;99.90;;;;;;7303578;19;9353;-69
2023/07/11 00:30:21;;;;;;;;;;;16.90;99.90;;;;;;7301530;19;9771;-69
2023/07/11 00:32:50;;;;;;;;;;;16.90;99.90;;;;;;7303992;19;9449;-70
2023/07/11 00:35:19;;;;;;;;;;;16.80;99.90;;;;;;7301303;19;9314;-70
2023/07/11 00:37:48;;;;;;;;;;;16.70;99.90;;;;;;7302381;19;9023;-70
2023/07/11 00:40:17;;;;;;;;;;;16.70;99.90;;;;;;7302275;19;11875;-70
2023/07/11 00:42:46;;;;;;;;;;;16.70;99.90;;;;;;7303008;19;9334;-69
2023/07/11 00:45:45;;;;;;;;;;;16.70;99.90;;;;;;7299959;19;9055;-70
2023/07/11 00:48:18;;;;;;;;;;;16.80;99.90;;;;;;7303266;19;9328;-70
2023/07/11 00:50:47;;;;;;;;;;;16.70;99.90;;;;;;7299490;19;9647;-69
2023/07/11 00:53:18;;;;;;;;;;;16.70;99.90;;;;;;7299951;19;9700;-69
2023/07/11 00:55:48;;;;;;;;;;;16.70;99.90;;;;;;7301292;19;9253;-69
2023/07/11 00:58:22;;;;;;;;;;;16.70;99.90;;;;;;7304163;19;9465;-70
2023/07/11 01:00:52;;;;;;;;;;;16.70;99.90;;;;;;7301082;19;9304;-69
2023/07/11 01:03:25;;;;;;;;;;;16.70;99.90;;;;;;7302234;19;9506;-69
2023/07/11 01:05:58;;;;;;;;;;;16.70;99.90;;;;;;7306737;19;9301;-69
2023/07/11 01:08:27;;;;;;;;;;;16.70;99.90;;;;;;7300660;19;9403;-70
2023/07/11 01:10:56;;;;;;;;;;;16.70;99.90;;;;;;7299186;19;9506;-69
2023/07/11 01:13:25;;;;;;;;;;;16.60;99.90;;;;;;7305673;19;11359;-69
2023/07/11 01:15:54;;;;;;;;;;;16.60;99.90;;;;;;7308357;19;9255;-69
2023/07/11 01:18:26;;;;;;;;;;;16.60;99.90;;;;;;7309434;19;9496;-70
2023/07/11 01:20:57;;;;;;;;;;;16.50;99.90;;;;;;7307488;19;9510;-69
2023/07/11 01:23:29;;;;;;;;;;;16.50;99.90;;;;;;7309216;19;9218;-70
2023/07/11 01:26:02;;;;;;;;;;;16.50;99.90;;;;;;7309904;19;9086;-70
2023/07/11 01:28:32;;;;;;;;;;;16.50;99.90;;;;;;7312128;19;9264;-69
2023/07/11 01:31:03;;;;;;;;;;;16.50;99.90;;;;;;7308436;19;9468;-70
2023/07/11 01:33:33;;;;;;;;;;;16.50;99.90;;;;;;7307534;19;11275;-69
2023/07/11 01:36:01;;;;;;;;;;;16.60;99.90;;;;;;7306742;19;9586;-69
2023/07/11 01:38:33;;;;;;;;;;;16.60;99.90;;;;;;7309206;19;9309;-70
2023/07/11 01:41:02;;;;;;;;;;;16.50;99.90;;;;;;7308987;19;9276;-69
2023/07/11 01:43:32;;;;;;;;;;;16.60;99.90;;;;;;7309115;19;8997;-70
2023/07/11 01:46:01;;;;;;;;;;;16.60;99.90;;;;;;7305150;19;10840;-70
2023/07/11 01:48:30;;;;;;;;;;;16.50;99.90;;;;;;7308660;19;9139;-69
2023/07/11 01:50:59;;;;;;;;;;;16.60;99.90;;;;;;7305854;19;9413;-69
2023/07/11 01:53:28;;;;;;;;;;;16.50;99.90;;;;;;7310336;19;9405;-69
2023/07/11 01:56:02;;;;;;;;;;;16.50;99.90;;;;;;7304477;19;9489;-70
2023/07/11 01:58:32;;;;;;;;;;;16.50;99.90;;;;;;7308730;19;9262;-69
2023/07/11 02:01:02;;;;;;;;;;;16.40;99.90;;;;;;7304010;19;9264;-69
2023/07/11 02:03:31;;;;;;;;;;;16.40;99.90;;;;;;7308713;19;9390;-70
2023/07/11 02:06:00;;;;;;;;;;;16.40;99.90;;;;;;7311000;19;9923;-69
2023/07/11 02:08:29;;;;;;;;;;;16.30;99.90;;;;;;7308844;19;9178;-70
2023/07/11 02:11:01;;;;;;;;;;;16.30;99.90;;;;;;7306564;19;9327;-69
2023/07/11 02:13:30;;;;;;;;;;;16.30;99.90;;;;;;7307600;19;9425;-70
2023/07/11 02:15:58;;;;;;;;;;;16.30;99.90;;;;;;7304497;19;9452;-69
2023/07/11 02:18:27;;;;;;;;;;;16.20;99.90;;;;;;7307695;19;9591;-70
2023/07/11 02:20:59;;;;;;;;;;;16.20;99.90;;;;;;7307451;19;9427;-69
2023/07/11 02:23:28;;;;;;;;;;;16.20;99.90;;;;;;7307845;19;9244;-70
2023/07/11 02:26:00;;;;;;;;;;;16.20;99.90;;;;;;7305130;19;11573;-69
2023/07/11 02:28:29;;;;;;;;;;;16.30;99.90;;;;;;7307655;19;9449;-70
2023/07/11 02:30:58;;;;;;;;;;;16.30;99.90;;;;;;7306586;19;11216;-69
2023/07/11 02:33:27;;;;;;;;;;;16.30;99.90;;;;;;7309174;19;9272;-69
2023/07/11 02:35:57;;;;;;;;;;;16.40;99.90;;;;;;7301894;19;11522;-69
2023/07/11 02:38:26;;;;;;;;;;;16.30;99.90;;;;;;7306729;19;11342;-69
2023/07/11 02:40:55;;;;;;;;;;;16.40;99.90;;;;;;7306107;19;10617;-69
2023/07/11 02:43:27;;;;;;;;;;;16.40;99.90;;;;;;7308184;19;9973;-69
2023/07/11 02:45:56;;;;;;;;;;;16.40;99.90;;;;;;7305187;19;9301;-69
2023/07/11 02:48:27;;;;;;;;;;;16.40;99.90;;;;;;7306913;19;9465;-69
2023/07/11 02:50:56;;;;;;;;;;;16.40;99.90;;;;;;7304057;19;9433;-69
2023/07/11 02:53:25;;;;;;;;;;;16.40;99.90;;;;;;7306811;19;9417;-69
2023/07/11 02:55:56;;;;;;;;;;;16.40;99.90;;;;;;7302512;19;9474;-69
2023/07/11 02:58:28;;;;;;;;;;;16.40;99.90;;;;;;7306551;19;10305;-70
2023/07/11 03:01:00;;;;;;;;;;;16.40;99.90;;;;;;7295185;19;12673;-69
2023/07/11 03:03:30;;;;;;;;;;;16.30;99.90;;;;;;7264151;19;9151;-70
2023/07/11 03:05:59;;;;;;;;;;;16.30;99.90;;;;;;7264898;19;11924;-70
2023/07/11 03:08:26;;;;;;;;;;;16.30;99.90;;;;;;7293397;19;9366;-69
2023/07/11 03:11:00;;;;;;;;;;;16.40;99.90;;;;;;7300297;19;10466;-69
2023/07/11 03:13:32;;;;;;;;;;;16.50;99.90;;;;;;7308113;19;9474;-70
2023/07/11 03:16:04;;;;;;;;;;;16.60;99.90;;;;;;7303056;19;9910;-69
2023/07/11 03:18:33;;;;;;;;;;;16.60;99.90;;;;;;7305197;19;9340;-69
2023/07/11 03:21:04;;;;;;;;;;;16.60;99.90;;;;;;7303677;19;9735;-69
2023/07/11 03:23:33;;;;;;;;;;;16.70;99.90;;;;;;7304307;19;9358;-70
2023/07/11 03:26:02;;;;;;;;;;;16.70;99.90;;;;;;7302321;19;9281;-69
2023/07/11 03:28:34;;;;;;;;;;;16.70;99.90;;;;;;7305230;19;9648;-70
2023/07/11 03:31:03;;;;;;;;;;;16.70;99.90;;;;;;7307450;19;9492;-70
2023/07/11 03:33:32;;;;;;;;;;;16.80;99.90;;;;;;7306067;19;9389;-70
2023/07/11 03:36:01;;;;;;;;;;;16.80;99.90;;;;;;7304031;19;10279;-70
2023/07/11 03:38:30;;;;;;;;;;;16.90;99.90;;;;;;7304192;19;9633;-70
2023/07/11 03:40:59;;;;;;;;;;;16.90;99.90;;;;;;7305741;19;9407;-69
2023/07/11 03:43:28;;;;;;;;;;;16.90;99.90;;;;;;7302958;19;9327;-69
2023/07/11 03:45:59;;;;;;;;;;;16.90;99.90;;;;;;7302130;19;9153;-70
2023/07/11 03:48:28;;;;;;;;;;;17.00;99.90;;;;;;7304276;19;9551;-69
2023/07/11 03:50:57;;;;;;;;;;;17.00;99.90;;;;;;7304439;19;10370;-69
2023/07/11 03:53:26;;;;;;;;;;;16.90;99.90;;;;;;7306434;19;11162;-70
2023/07/11 03:55:55;;;;;;;;;;;16.90;99.90;;;;;;7303157;19;9236;-70
2023/07/11 03:58:27;;;;;;;;;;;16.90;99.90;;;;;;7302997;19;9350;-70
2023/07/11 04:01:00;;;;;;;;;;;16.90;99.90;;;;;;7303803;19;9461;-70
2023/07/11 04:03:29;;;;;;;;;;;16.90;99.90;;;;;;7305069;19;9492;-69
2023/07/11 04:05:58;;;;;;;;;;;16.90;99.90;;;;;;7302436;19;9327;-69
2023/07/11 04:08:27;;;;;;;;;;;16.90;99.90;;;;;;7302951;19;9293;-70
2023/07/11 04:11:01;;;;;;;;;;;16.90;99.90;;;;;;7302164;19;11044;-70
2023/07/11 04:13:30;;;;;;;;;;;16.90;99.90;;;;;;7303349;19;9272;-70
2023/07/11 04:16:02;;;;;;;;;;;16.80;99.90;;;;;;7302876;19;9438;-70
2023/07/11 04:18:31;;;;;;;;;;;16.70;99.90;;;;;;7304088;19;9240;-70
2023/07/11 04:20:59;;;;;;;;;;;16.70;99.90;;;;;;7303251;19;9224;-71
2023/07/11 04:23:28;;;;;;;;;;;16.70;99.90;;;;;;7298852;19;9493;-70
2023/07/11 04:25:57;;;;;;;;;;;16.80;99.90;;;;;;7303549;19;9120;-70
2023/07/11 04:28:26;;;;;;;;;;;16.80;99.90;;;;;;7305071;19;9319;-70
2023/07/11 04:30:55;;;;;;;;;;;16.80;99.90;;;;;;7303128;19;9406;-70
2023/07/11 04:33:27;;;;;;;;;;;16.80;99.90;;;;;;7302459;19;10397;-70
2023/07/11 04:35:56;;;;;;;;;;;16.80;99.90;;;;;;7302899;19;9467;-70
2023/07/11 04:38:25;;;;;;;;;;;16.90;99.90;;;;;;7300347;19;9392;-70
2023/07/11 04:40:54;;;;;;;;;;;16.90;99.90;;;;;;7303208;19;9665;-70
2023/07/11 04:43:23;;;;;;;;;;;16.90;99.90;;;;;;7303105;19;9265;-70
2023/07/11 04:45:52;;;;;;;;;;;17.00;99.90;;;;;;7301727;19;9001;-71
2023/07/11 04:48:20;;;;;;;;;;;17.00;99.90;;;;;;7303692;19;9349;-69
2023/07/11 04:50:58;;;;;;;;;;;17.00;99.90;;;;;;7306996;19;9387;-70
2023/07/11 04:53:28;;;;;;;;;;;17.10;99.90;;;;;;7302344;19;9159;-70
2023/07/11 04:55:58;;;;;;;;;;;17.10;99.90;;;;;;7303009;19;9594;-70
2023/07/11 04:58:29;;;;;;;;;;;17.20;99.90;;;;;;7304349;19;9474;-70
2023/07/11 05:01:02;;;;;;;;;;;17.20;99.90;;;;;;7296200;19;9606;-70
2023/07/11 05:03:32;;;;;;;;;;;17.30;99.90;;;;;;7300353;19;8952;-71
2023/07/11 05:06:05;;;;;;;;;;;17.30;99.90;;;;;;7299560;19;9458;-70
2023/07/11 05:08:34;;;;;;;;;;;17.40;99.90;;;;;;7302379;19;9553;-70
2023/07/11 05:11:07;;;;;;;;;;;17.40;99.90;;;;;;7299113;19;9562;-70
2023/07/11 05:13:37;;;;;;;;;;;17.60;99.90;;;;;;7302520;19;11091;-70
2023/07/11 05:16:09;;;;;;;;;;;17.60;99.90;;;;;;7301510;19;9454;-70
2023/07/11 05:18:40;;;;;;;;;;;17.80;99.90;;;;;;7301291;19;9212;-70
2023/07/11 05:21:13;;;;;;;;;;;18.30;99.90;;;;;;7302596;19;9475;-69
2023/07/11 05:23:43;;;;;;;;;;;18.40;99.90;;;;;;7296431;19;9251;-70
2023/07/11 05:26:12;;;;;;;;;;;18.30;99.90;;;;;;7301868;19;9387;-70
2023/07/11 05:28:41;;;;;;;;;;;18.30;99.90;;;;;;7303162;19;9737;-70
2023/07/11 05:31:11;;;;;;;;;;;18.30;99.90;;;;;;7300402;19;9351;-70
2023/07/11 05:33:40;;;;;;;;;;;18.30;99.90;;;;;;7300277;19;9320;-70
2023/07/11 05:36:20;;;;;;;;;;;18.30;99.90;;;;;;7298886;19;10411;-70
2023/07/11 05:38:50;;;;;;;;;;;18.40;99.90;;;;;;7301701;19;11328;-70
2023/07/11 05:41:19;;;;;;;;;;;18.50;99.90;;;;;;7300793;19;9347;-70
2023/07/11 05:43:48;;;;;;;;;;;18.60;99.90;;;;;;7300919;19;10080;-70
2023/07/11 05:46:17;;;;;;;;;;;18.80;99.90;;;;;;7301537;19;9148;-69
2023/07/11 05:48:46;;;;;;;;;;;19.00;99.90;;;;;;7302599;19;9232;-70
2023/07/11 05:51:19;;;;;;;;;;;19.20;99.90;;;;;;7305332;19;10099;-70
2023/07/11 05:53:49;;;;;;;;;;;19.30;99.90;;;;;;7301294;19;9446;-70
2023/07/11 05:56:20;;;;;;;;;;;19.40;99.90;;;;;;7300646;19;9345;-70
2023/07/11 05:58:51;;;;;;;;;;;19.60;99.90;;;;;;7294059;19;10101;-70
2023/07/11 06:01:22;;;;;;;;;;;19.70;99.90;;;;;;7305942;19;9253;-70
2023/07/11 06:04:03;;;;;;;;;;;19.70;99.90;;;;;;7306410;19;10364;-70
2023/07/11 06:06:41;;;;;;;;;;;19.80;99.90;;;;;;7304429;19;9264;-70
2023/07/11 06:09:12;;;;;;;;;;;19.80;99.90;;;;;;7308531;19;11030;-70
2023/07/11 06:11:41;;;;;;;;;;;20.00;99.90;;;;;;7305741;19;9704;-70
2023/07/11 06:14:11;;;;;;;;;;;20.10;99.90;;;;;;7308269;19;9158;-70
2023/07/11 06:16:42;;;;;;;;;;;20.30;99.90;;;;;;7303347;19;9479;-70
2023/07/11 06:19:12;;;;;;;;;;;20.30;99.90;;;;;;7297873;19;10890;-70
2023/07/11 06:21:44;;;;;;;;;;;20.40;99.90;;;;;;7264293;19;12584;-70
2023/07/11 06:24:13;;;;;;;;;;;20.50;99.90;;;;;;7263978;19;9457;-70
2023/07/11 06:26:42;;;;;;;;;;;20.50;99.90;;;;;;7263924;19;9116;-70
2023/07/11 06:29:11;;;;;;;;;;;20.60;99.90;;;;;;7266561;19;9568;-70
2023/07/11 06:31:41;;;;;;;;;;;20.60;99.90;;;;;;7266509;19;9617;-70
2023/07/11 06:34:10;;;;;;;;;;;20.60;99.90;;;;;;7274077;19;9324;-70
2023/07/11 06:36:39;;;;;;;;;;;20.80;99.90;;;;;;7269482;19;9515;-70
2023/07/11 06:39:11;;;;;;;;;;;20.90;99.90;;;;;;7297428;19;9497;-70
2023/07/11 06:41:40;;;;;;;;;;;21.00;99.90;;;;;;7300773;19;9230;-70
2023/07/11 06:44:09;;;;;;;;;;;21.00;99.90;;;;;;7307129;19;9545;-70
2023/07/11 06:46:38;;;;;;;;;;;21.10;99.90;;;;;;7305483;19;11536;-70
2023/07/11 06:49:07;;;;;;;;;;;21.10;99.90;;;;;;7304241;19;9593;-70
2023/07/11 06:51:36;;;;;;;;;;;21.30;99.90;;;;;;7310671;19;9229;-71
2023/07/11 06:54:05;;;;;;;;;;;21.40;99.90;;;;;;7298650;19;8944;-70
2023/07/11 06:56:37;;;;;;;;;;;21.60;99.90;;;;;;7303163;19;9265;-70
2023/07/11 06:59:06;;;;;;;;;;;21.80;99.90;;;;;;7306983;19;9236;-70
2023/07/11 07:01:35;;;;;;;;;;;21.90;99.90;;;;;;7303559;19;9241;-70
2023/07/11 07:04:05;;;;;;;;;;;21.90;99.90;;;;;;7306094;19;9567;-70
2023/07/11 07:06:35;;;;;;;;;;;22.00;99.50;;;;;;7306608;19;9148;-70
2023/07/11 07:09:03;;;;;;;;;;;22.20;98.90;;;;;;7306631;19;9260;-70
2023/07/11 07:11:35;;;;;;;;;;;22.40;98.10;;;;;;7301471;19;9587;-70
2023/07/11 07:14:10;;;;;;;;;;;22.60;98.00;;;;;;7303844;19;9991;-70
2023/07/11 07:16:41;;;;;;;;;;;22.60;97.60;;;;;;7301510;19;9324;-70
2023/07/11 07:19:13;;;;;;;;;;;23.00;97.10;;;;;;7301321;19;11449;-71
2023/07/11 07:21:42;;;;;;;;;;;23.50;95.70;;;;;;7304486;19;9268;-70
2023/07/11 07:24:11;;;;;;;;;;;23.90;94.10;;;;;;7304679;19;9491;-70
2023/07/11 07:26:41;;;;;;;;;;;24.30;92.90;;;;;;7304850;19;9281;-70
2023/07/11 07:29:13;;;;;;;;;;;24.50;91.30;;;;;;7304566;19;13036;-70
2023/07/11 07:31:42;;;;;;;;;;;24.50;90.30;;;;;;7303523;19;9232;-70
2023/07/11 07:34:11;;;;;;;;;;;24.70;90.00;;;;;;7309500;19;9281;-70
2023/07/11 07:36:40;;;;;;;;;;;24.80;90.00;;;;;;7301506;19;9598;-70
2023/07/11 07:39:09;;;;;;;;;;;24.80;90.10;;;;;;7294481;19;9617;-70
2023/07/11 07:41:38;;;;;;;;;;;24.70;89.40;;;;;;7302458;19;9552;-70
2023/07/11 07:44:07;;;;;;;;;;;24.70;89.20;;;;;;7300378;19;9354;-70
2023/07/11 07:46:39;;;;;;;;;;;24.80;88.60;;;;;;7304927;19;9581;-69
2023/07/11 07:49:07;;;;;;;;;;;24.90;85.90;;;;;;7296985;19;9367;-70
2023/07/11 07:51:36;;;;;;;;;;;24.90;85.50;;;;;;7308162;19;9190;-70
2023/07/11 07:54:05;;;;;;;;;;;24.90;84.60;;;;;;7302942;19;11314;-69
2023/07/11 07:56:35;;;;;;;;;;;25.00;84.70;;;;;;7302889;19;11565;-71
2023/07/11 07:59:04;;;;;;;;;;;25.00;85.20;;;;;;7300713;19;9614;-70
2023/07/11 08:01:33;;;;;;;;;;;24.90;84.20;;;;;;7297688;19;9292;-70
2023/07/11 08:04:05;;;;;;;;;;;25.00;84.70;;;;;;7311175;19;9116;-70
2023/07/11 08:06:35;;;;;;;;;;;24.80;85.60;;;;;;7288807;19;9681;-69
2023/07/11 08:09:04;;;;;;;;;;;24.90;84.40;;;;;;7288409;19;10837;-71
2023/07/11 08:11:33;;;;;;;;;;;24.90;85.10;;;;;;7301669;19;11507;-70
2023/07/11 08:14:02;;;;;;;;;;;24.90;84.30;;;;;;7300801;19;10511;-70
2023/07/11 08:16:32;;;;;;;;;;;24.90;83.70;;;;;;7290160;19;10417;-70
2023/07/11 08:19:04;;;;;;;;;;;25.00;82.90;;;;;;7296678;19;9546;-70
2023/07/11 08:21:36;;;;;;;;;;;25.30;82.10;;;;;;7299838;19;8968;-70
2023/07/11 08:24:06;;;;;;;;;;;25.50;80.90;;;;;;7297007;19;9375;-70
2023/07/11 08:26:35;;;;;;;;;;;25.60;80.20;;;;;;7302364;19;9387;-69
2023/07/11 08:29:04;;;;;;;;;;;25.70;79.40;;;;;;7303321;19;9397;-70
2023/07/11 08:31:33;;;;;;;;;;;25.80;78.60;;;;;;7302104;19;9520;-70
2023/07/11 08:34:02;;;;;;;;;;;25.80;77.60;;;;;;7302006;19;10690;-71
2023/07/11 08:36:31;;;;;;;;;;;25.80;77.10;;;;;;7303784;19;9241;-71
2023/07/11 08:39:02;;;;;;;;;;;25.80;76.90;;;;;;7302318;19;9256;-70
2023/07/11 08:41:42;;;;;;;;;;;25.70;77.30;;;;;;7298825;19;10460;-69
2023/07/11 08:44:39;;;;;;;;;;;25.70;77.60;;;;;;7322851;19;9185;-70
2023/07/11 08:47:14;;;;;;;;;;;25.70;77.50;;;;;;7302501;19;9561;-70
2023/07/11 08:49:53;;;;;;;;;;;25.90;77.90;;;;;;7304190;19;10918;-70
2023/07/11 08:52:25;;;;;;;;;;;26.10;76.30;;;;;;7306030;19;9432;-70
2023/07/11 08:55:02;;;;;;;;;;;26.40;75.50;;;;;;7300246;19;9432;-70
2023/07/11 08:57:37;;;;;;;;;;;26.40;75.30;;;;;;7303474;19;9258;-69
2023/07/11 09:00:12;;;;;;;;;;;26.30;75.40;;;;;;7300879;19;9005;-70
2023/07/11 09:02:54;;;;;;;;;;;26.30;74.60;;;;;;7302083;19;10471;-70
2023/07/11 09:05:37;;;;;;;;;;;26.30;75.10;;;;;;7298919;19;9287;-70
2023/07/11 09:08:08;;;;;;;;;;;26.20;75.20;;;;;;7302875;19;9498;-70
2023/07/11 09:10:48;;;;;;;;;;;26.10;75.40;;;;;;7301036;19;9514;-70
2023/07/11 09:13:52;;;;;;;;;;;26.20;75.00;;;;;;7301715;19;9476;-70
2023/07/11 09:16:36;;;;;;;;;;;26.20;74.60;;;;;;7298336;19;9227;-71
2023/07/11 09:19:26;;;;;;;;;;;26.30;74.80;;;;;;7301373;19;10384;-70
2023/07/11 09:22:03;;;;;;;;;;;26.30;73.80;;;;;;7299813;19;9221;-70
2023/07/11 09:24:41;;;;;;;;;;;26.40;73.40;;;;;;7297562;19;9237;-70
2023/07/11 09:27:24;;;;;;;;;;;26.40;73.00;;;;;;7302290;19;9431;-70
2023/07/11 09:29:56;;;;;;;;;;;26.50;73.00;;;;;;7299646;19;10795;-70
2023/07/11 09:32:34;;;;;;;;;;;26.50;72.20;;;;;;7302405;19;9248;-70
2023/07/11 09:35:24;;;;;;;;;;;26.60;72.40;;;;;;7301243;19;9299;-70
2023/07/11 09:37:58;;;;;;;;;;;26.70;72.20;;;;;;7309691;19;9240;-70
2023/07/11 09:40:35;;;;;;;;;;;26.80;71.30;;;;;;7308575;19;9260;-71
2023/07/11 09:43:07;;;;;;;;;;;26.80;71.70;;;;;;7297581;19;9882;-73
2023/07/11 09:45:39;;;;;;;;;;;26.90;71.20;;;;;;7305046;19;9232;-72
2023/07/11 09:48:16;;;;;;;;;;;26.90;71.00;;;;;;7303748;19;10283;-71
2023/07/11 09:51:02;;;;;;;;;;;26.80;70.80;;;;;;7306288;19;9477;-72
2023/07/11 09:53:32;;;;;;;;;;;26.80;70.90;;;;;;7307461;19;9304;-72
2023/07/11 09:56:03;;;;;;;;;;;26.80;70.70;;;;;;7307617;19;9280;-71
2023/07/11 09:58:36;;;;;;;;;;;26.90;70.50;;;;;;7308434;19;9273;-72
2023/07/11 10:01:09;;;;;;;;;;;26.90;70.20;;;;;;7306679;19;10468;-72
2023/07/11 10:03:37;;;;;;;;;;;27.00;70.20;;;;;;7307448;19;11668;-72
2023/07/11 10:06:07;;;;;;;;;;;27.00;70.10;;;;;;7303743;19;10812;-72
2023/07/11 10:08:39;;;;;;;;;;;27.00;69.90;;;;;;7303628;19;9604;-72
2023/07/11 10:11:13;;;;;;;;;;;27.10;70.50;;;;;;7308027;19;9268;-73
2023/07/11 10:13:48;;;;;;;;;;;27.10;69.80;;;;;;7308300;19;9404;-73
2023/07/11 10:16:20;;;;;;;;;;;27.10;69.80;;;;;;7305158;19;11673;-72
2023/07/11 10:18:49;;;;;;;;;;;27.10;69.80;;;;;;7305698;19;10431;-73
2023/07/11 10:21:22;;;;;;;;;;;27.20;69.40;;;;;;7306381;19;9421;-73
2023/07/11 10:23:55;;;;;;;;;;;27.20;69.60;;;;;;7308165;19;9757;-72
2023/07/11 10:26:27;;;;;;;;;;;27.10;69.70;;;;;;7306930;19;9345;-72
2023/07/11 10:29:07;;;;;;;;;;;27.10;69.10;;;;;;7308502;19;9260;-72
2023/07/11 10:31:40;;;;;;;;;;;27.20;68.50;;;;;;7306480;19;9670;-72
2023/07/11 10:34:19;;;;;;;;;;;27.20;67.90;;;;;;7303248;19;9423;-74
2023/07/11 10:36:53;;;;;;;;;;;27.20;68.00;;;;;;7309413;19;9554;-72
2023/07/11 10:39:29;;;;;;;;;;;27.30;66.20;;;;;;7302653;19;9515;-72
2023/07/11 10:42:31;;;;;;;;;;;27.30;67.70;;;;;;7302210;19;9268;-72
2023/07/11 10:45:13;;;;;;;;;;;27.50;66.80;;;;;;7303306;19;9436;-72
2023/07/11 10:47:52;;;;;;;;;;;27.60;67.00;;;;;;7303688;19;9505;-72
2023/07/11 10:50:36;;;;;;;;;;;27.70;66.50;;;;;;7303758;19;9402;-72
2023/07/11 10:53:16;;;;;;;;;;;27.70;66.00;;;;;;7304089;19;9273;-72
2023/07/11 10:55:54;;;;;;;;;;;27.70;65.80;;;;;;7306117;19;9231;-72
2023/07/11 10:58:26;;;;;;;;;;;27.80;65.90;;;;;;7306009;19;9457;-71
2023/07/11 11:01:13;;;;;;;;;;;27.90;65.60;;;;;;7303262;19;10567;-72
2023/07/11 11:03:45;;;;;;;;;;;28.00;64.90;;;;;;7307257;19;9390;-72
2023/07/11 11:06:36;;;;;;;;;;;27.80;64.90;;;;;;7306286;19;9394;-72
2023/07/11 11:09:16;;;;;;;;;;;27.80;65.20;;;;;;7306983;19;9443;-72
2023/07/11 11:12:02;;;;;;;;;;;27.70;64.80;;;;;;7306102;19;9587;-72
2023/07/11 11:14:43;;;;;;;;;;;27.70;64.80;;;;;;7307099;19;10847;-71
2023/07/11 11:17:46;;;;;;;;;;;27.80;64.60;;;;;;7303427;19;9270;-72
2023/07/11 11:20:23;;;;;;;;;;;27.90;64.50;;;;;;7304542;19;9366;-72
2023/07/11 11:23:07;;;;;;;;;;;28.00;63.90;;;;;;7307310;19;9308;-71
2023/07/11 11:25:47;;;;;;;;;;;28.10;63.80;;;;;;7295157;19;9453;-72
2023/07/11 11:28:27;;;;;;;;;;;28.10;63.40;;;;;;7306261;19;9221;-71
2023/07/11 11:31:07;;;;;;;;;;;28.10;62.80;;;;;;7303668;19;9173;-72
2023/07/11 11:33:54;;;;;;;;;;;28.20;62.90;;;;;;7302931;19;10332;-71
2023/07/11 11:36:31;;;;;;;;;;;28.20;62.90;;;;;;7309290;19;11625;-72
2023/07/11 11:39:18;;;;;;;;;;;28.30;62.60;;;;;;7305327;19;9225;-72
2023/07/11 11:41:54;;;;;;;;;;;28.30;61.80;;;;;;7304235;19;11018;-72
2023/07/11 11:44:29;;;;;;;;;;;28.20;62.10;;;;;;7276705;19;11063;-71
2023/07/11 11:47:05;;;;;;;;;;;28.10;62.10;;;;;;7272966;19;10537;-72
2023/07/11 11:49:42;;;;;;;;;;;28.10;62.30;;;;;;7294619;19;9301;-72
2023/07/11 11:52:11;;;;;;;;;;;28.10;62.30;;;;;;7280770;19;9237;-72
2023/07/11 11:54:44;;;;;;;;;;;28.30;62.10;;;;;;7297336;19;9252;-72
2023/07/11 11:57:22;;;;;;;;;;;28.30;62.10;;;;;;7296145;19;9257;-72
2023/07/11 11:59:51;;;;;;;;;;;28.30;61.90;;;;;;7295322;19;9811;-72
2023/07/11 12:02:30;;;;;;;;;;;28.30;61.90;;;;;;7295339;19;8944;-73
2023/07/11 12:05:17;;;;;;;;;;;28.30;62.30;;;;;;7297831;19;9521;-72
2023/07/11 12:07:47;;;;;;;;;;;28.50;62.30;;;;;;7271627;19;9490;-72
2023/07/11 12:10:27;;;;;;;;;;;28.60;61.60;;;;;;7300408;19;10168;-71
2023/07/11 12:13:20;;;;;;;;;;;28.60;61.40;;;;;;7299795;19;9464;-72
2023/07/11 12:15:52;;;;;;;;;;;28.60;61.40;;;;;;7299414;19;9287;-72
2023/07/11 12:18:41;;;;;;;;;;;28.50;61.50;;;;;;7286051;19;9256;-72
2023/07/11 12:21:35;;;;;;;;;;;28.50;61.60;;;;;;7301658;19;9474;-72
2023/07/11 12:24:25;;;;;;;;;;;28.50;62.30;;;;;;7300744;19;9153;-72
2023/07/11 12:26:55;;;;;;;;;;;28.50;62.10;;;;;;7300067;19;9433;-73
2023/07/11 12:29:42;;;;;;;;;;;28.50;62.20;;;;;;7301661;19;9487;-72
2023/07/11 12:32:46;;;;;;;;;;;28.50;61.90;;;;;;7302346;19;9529;-72
2023/07/11 12:35:20;;;;;;;;;;;28.40;61.80;;;;;;7302659;19;9240;-73
2023/07/11 12:38:13;;;;;;;;;;;28.40;62.00;;;;;;7301789;19;9387;-73
2023/07/11 12:40:55;;;;;;;;;;;28.40;62.10;;;;;;7299205;19;9643;-72
2023/07/11 12:43:29;;;;;;;;;;;28.50;62.20;;;;;;7300555;19;9543;-73
2023/07/11 12:46:02;;;;;;;;;;;28.50;61.90;;;;;;7300647;19;8944;-73
2023/07/11 12:48:34;;;;;;;;;;;28.60;61.90;;;;;;7301531;19;9258;-72
2023/07/11 12:51:07;;;;;;;;;;;28.70;62.00;;;;;;7299436;19;10743;-73
2023/07/11 12:53:40;;;;;;;;;;;28.60;61.60;;;;;;7298384;19;9335;-72
2023/07/11 12:56:15;;;;;;;;;;;28.60;61.70;;;;;;7297863;19;9431;-72
2023/07/11 12:58:44;;;;;;;;;;;28.50;62.00;;;;;;7294329;19;9415;-73
2023/07/11 13:01:17;;;;;;;;;;;28.50;62.20;;;;;;7295435;19;9518;-73
2023/07/11 13:03:47;;;;;;;;;;;28.40;62.20;;;;;;7299648;19;9246;-73
2023/07/11 13:06:26;;;;;;;;;;;28.30;62.30;;;;;;7297391;19;9240;-73
2023/07/11 13:08:59;;;;;;;;;;;28.30;62.60;;;;;;7294265;19;9324;-72
2023/07/11 13:11:32;;;;;;;;;;;28.40;62.60;;;;;;7303816;19;9716;-73
2023/07/11 13:14:01;;;;;;;;;;;28.40;62.50;;;;;;7308403;19;9476;-72
2023/07/11 13:16:39;;;;;;;;;;;28.50;62.10;;;;;;7303910;19;10524;-73
2023/07/11 13:19:15;;;;;;;;;;;28.70;62.00;;;;;;7305188;19;10866;-72
2023/07/11 13:21:47;;;;;;;;;;;28.70;61.90;;;;;;7284838;19;9701;-73
2023/07/11 13:24:28;;;;;;;;;;;28.70;61.70;;;;;;7306487;19;9464;-72
2023/07/11 13:27:05;;;;;;;;;;;28.60;61.90;;;;;;7309624;19;10799;-72
2023/07/11 13:29:45;;;;;;;;;;;28.60;62.00;;;;;;7297005;19;9863;-70
2023/07/11 13:32:40;;;;;;;;;;;28.70;61.80;;;;;;7306244;19;10647;-72
2023/07/11 13:35:18;;;;;;;;;;;28.70;61.70;;;;;;7303144;19;10449;-72
2023/07/11 13:37:50;;;;;;;;;;;28.70;61.90;;;;;;7301819;19;9445;-73
2023/07/11 13:40:42;;;;;;;;;;;28.70;62.00;;;;;;7296819;19;9468;-72
2023/07/11 13:43:21;;;;;;;;;;;28.90;61.70;;;;;;7304590;19;9370;-73
2023/07/11 13:45:52;;;;;;;;;;;28.90;61.30;;;;;;7300567;19;9751;-73
2023/07/11 13:48:24;;;;;;;;;;;28.90;61.60;;;;;;7304296;19;10897;-73
2023/07/11 13:51:08;;;;;;;;;;;28.80;61.20;;;;;;7303654;19;9233;-72
2023/07/11 13:53:40;;;;;;;;;;;28.70;61.10;;;;;;7303199;19;9279;-72
2023/07/11 13:56:13;;;;;;;;;;;28.70;61.20;;;;;;7303823;19;9435;-72
2023/07/11 13:58:42;;;;;;;;;;;28.70;61.10;;;;;;7304794;19;11651;-72
2023/07/11 14:01:16;;;;;;;;;;;28.60;61.30;;;;;;7301691;19;9514;-72
2023/07/11 14:03:45;;;;;;;;;;;28.60;61.60;;;;;;7305499;19;9520;-72
2023/07/11 14:06:17;;;;;;;;;;;28.50;61.60;;;;;;7296649;19;9462;-72
2023/07/11 14:08:46;;;;;;;;;;;28.60;61.90;;;;;;7295842;19;9366;-72
2023/07/11 14:11:26;;;;;;;;;;;28.60;61.70;;;;;;7295696;19;9244;-72
2023/07/11 14:13:56;;;;;;;;;;;28.70;61.50;;;;;;7302002;19;11033;-73
2023/07/11 14:16:25;;;;;;;;;;;28.50;61.70;;;;;;7304488;19;10740;-73
2023/07/11 14:18:55;;;;;;;;;;;28.40;62.00;;;;;;7300243;19;9245;-73
2023/07/11 14:21:24;;;;;;;;;;;28.30;62.00;;;;;;7301008;19;9554;-72
2023/07/11 14:23:53;;;;;;;;;;;28.30;62.40;;;;;;7298554;19;9467;-73
2023/07/11 14:26:25;;;;;;;;;;;28.20;62.30;;;;;;7305796;19;9288;-73
2023/07/11 14:28:54;;;;;;;;;;;28.20;62.60;;;;;;7308114;19;9413;-73
2023/07/11 14:31:25;;;;;;;;;;;28.20;62.70;;;;;;7306972;19;9423;-73
2023/07/11 14:33:54;;;;;;;;;;;28.10;62.70;;;;;;7307284;19;9159;-73
2023/07/11 14:36:23;;;;;;;;;;;28.10;62.90;;;;;;7307919;19;9393;-72
2023/07/11 14:38:52;;;;;;;;;;;28.10;63.00;;;;;;7303620;19;9377;-73
2023/07/11 14:41:23;;;;;;;;;;;28.10;63.00;;;;;;7303068;19;9200;-73
2023/07/11 14:43:52;;;;;;;;;;;28.10;63.00;;;;;;7305386;19;9750;-73
2023/07/11 14:46:21;;;;;;;;;;;28.10;63.10;;;;;;7306433;19;9455;-73
2023/07/11 14:48:50;;;;;;;;;;;28.10;63.40;;;;;;7303342;19;9351;-74
2023/07/11 14:51:19;;;;;;;;;;;28.10;63.10;;;;;;7323255;19;11638;-73
2023/07/11 14:53:50;;;;;;;;;;;28.00;63.40;;;;;;7328952;19;9459;-73
2023/07/11 14:56:20;;;;;;;;;;;27.90;63.70;;;;;;7327222;19;9189;-74
2023/07/11 14:58:56;;;;;;;;;;;27.90;63.60;;;;;;7323972;19;9288;-73
2023/07/11 15:01:25;;;;;;;;;;;27.80;63.80;;;;;;7326554;19;9275;-73